sensor_id;sensor_type;location;lat;lon;timestamp;P1;durP1;ratioP1;P2;durP2;ratioP2
12114;SDS011;6121;49.810;6.418;2023-07-22T00:02:22;10.77;;;5.47;;
12114;SDS011;6121;49.810;6.418;2023-07-22T00:04:48;11.10;;;5.63;;
12114;SDS011;6121;49.810;6.418;2023-07-22T00:07:15;11.52;;;5.78;;
12114;SDS011;6121;49.810;6.418;2023-07-22T00:09:41;8.80;;;4.75;;
12114;SDS011;6121;49.810;6.418;2023-07-22T00:12:08;9.63;;;4.95;;
12114;SDS011;6121;49.810;6.418;2023-07-22T00:14:36;9.43;;;4.80;;
12114;SDS011;6121;49.810;6.418;2023-07-22T00:17:04;9.13;;;4.72;;
12114;SDS011;6121;49.810;6.418;2023-07-22T00:19:30;12.30;;;6.27;;
12114;SDS011;6121;49.810;6.418;2023-07-22T00:21:56;8.90;;;4.50;;
12114;SDS011;6121;49.810;6.418;2023-07-22T00:24:21;9.83;;;4.97;;
12114;SDS011;6121;49.810;6.418;2023-07-22T00:26:47;9.47;;;4.87;;
12114;SDS011;6121;49.810;6.418;2023-07-22T00:29:15;10.38;;;5.35;;
12114;SDS011;6121;49.810;6.418;2023-07-22T00:31:42;10.05;;;5.32;;
12114;SDS011;6121;49.810;6.418;2023-07-22T00:34:07;10.10;;;5.25;;
12114;SDS011;6121;49.810;6.418;2023-07-22T00:36:34;9.77;;;4.95;;
12114;SDS011;6121;49.810;6.418;2023-07-22T00:39:00;7.95;;;4.22;;
12114;SDS011;6121;49.810;6.418;2023-07-22T00:41:26;11.47;;;5.77;;
12114;SDS011;6121;49.810;6.418;2023-07-22T00:43:54;15.32;;;7.72;;
12114;SDS011;6121;49.810;6.418;2023-07-22T00:46:20;10.37;;;5.07;;
12114;SDS011;6121;49.810;6.418;2023-07-22T00:48:46;8.77;;;4.40;;
12114;SDS011;6121;49.810;6.418;2023-07-22T00:51:13;11.30;;;5.65;;
12114;SDS011;6121;49.810;6.418;2023-07-22T00:53:39;17.42;;;8.80;;
12114;SDS011;6121;49.810;6.418;2023-07-22T00:56:05;8.32;;;4.25;;
12114;SDS011;6121;49.810;6.418;2023-07-22T00:58:32;9.82;;;5.05;;
12114;SDS011;6121;49.810;6.418;2023-07-22T01:00:59;11.40;;;5.55;;
12114;SDS011;6121;49.810;6.418;2023-07-22T01:03:25;18.77;;;9.45;;
12114;SDS011;6121;49.810;6.418;2023-07-22T01:05:51;9.48;;;5.00;;
12114;SDS011;6121;49.810;6.418;2023-07-22T01:08:18;9.95;;;5.18;;
12114;SDS011;6121;49.810;6.418;2023-07-22T01:10:44;10.55;;;5.53;;
12114;SDS011;6121;49.810;6.418;2023-07-22T01:13:10;13.90;;;7.13;;
12114;SDS011;6121;49.810;6.418;2023-07-22T01:15:36;12.03;;;6.07;;
12114;SDS011;6121;49.810;6.418;2023-07-22T01:18:04;9.05;;;4.80;;
12114;SDS011;6121;49.810;6.418;2023-07-22T01:20:30;10.73;;;5.57;;
12114;SDS011;6121;49.810;6.418;2023-07-22T01:22:56;13.73;;;7.25;;
12114;SDS011;6121;49.810;6.418;2023-07-22T01:25:23;12.80;;;6.63;;
12114;SDS011;6121;49.810;6.418;2023-07-22T01:27:50;9.98;;;5.25;;
12114;SDS011;6121;49.810;6.418;2023-07-22T01:30:16;10.45;;;5.38;;
12114;SDS011;6121;49.810;6.418;2023-07-22T01:32:43;13.05;;;6.38;;
12114;SDS011;6121;49.810;6.418;2023-07-22T01:35:09;11.00;;;5.63;;
12114;SDS011;6121;49.810;6.418;2023-07-22T01:37:35;6.10;;;4.07;;
12114;SDS011;6121;49.810;6.418;2023-07-22T01:40:02;6.40;;;4.18;;
12114;SDS011;6121;49.810;6.418;2023-07-22T01:42:40;6.80;;;4.47;;
12114;SDS011;6121;49.810;6.418;2023-07-22T01:45:07;7.32;;;4.82;;
12114;SDS011;6121;49.810;6.418;2023-07-22T01:47:34;6.75;;;4.43;;
12114;SDS011;6121;49.810;6.418;2023-07-22T01:50:01;6.85;;;4.32;;
12114;SDS011;6121;49.810;6.418;2023-07-22T01:52:28;8.43;;;5.20;;
12114;SDS011;6121;49.810;6.418;2023-07-22T01:54:54;7.40;;;4.32;;
12114;SDS011;6121;49.810;6.418;2023-07-22T01:57:20;8.43;;;4.78;;
12114;SDS011;6121;49.810;6.418;2023-07-22T01:59:46;9.07;;;5.57;;
12114;SDS011;6121;49.810;6.418;2023-07-22T02:02:12;5.40;;;3.58;;
12114;SDS011;6121;49.810;6.418;2023-07-22T02:04:38;8.68;;;5.10;;
12114;SDS011;6121;49.810;6.418;2023-07-22T02:07:04;7.72;;;4.57;;
12114;SDS011;6121;49.810;6.418;2023-07-22T02:09:29;9.20;;;5.57;;
12114;SDS011;6121;49.810;6.418;2023-07-22T02:11:58;5.43;;;3.72;;
12114;SDS011;6121;49.810;6.418;2023-07-22T02:14:24;9.85;;;5.85;;
12114;SDS011;6121;49.810;6.418;2023-07-22T02:16:50;9.15;;;5.55;;
12114;SDS011;6121;49.810;6.418;2023-07-22T02:19:16;6.72;;;4.28;;
12114;SDS011;6121;49.810;6.418;2023-07-22T02:21:41;7.23;;;4.50;;
12114;SDS011;6121;49.810;6.418;2023-07-22T02:24:08;8.65;;;5.13;;
12114;SDS011;6121;49.810;6.418;2023-07-22T02:26:34;7.65;;;4.75;;
12114;SDS011;6121;49.810;6.418;2023-07-22T02:29:01;6.57;;;4.00;;
12114;SDS011;6121;49.810;6.418;2023-07-22T02:31:27;10.18;;;5.82;;
12114;SDS011;6121;49.810;6.418;2023-07-22T02:33:53;11.70;;;7.03;;
12114;SDS011;6121;49.810;6.418;2023-07-22T02:36:19;6.77;;;3.93;;
12114;SDS011;6121;49.810;6.418;2023-07-22T02:38:45;7.53;;;4.53;;
12114;SDS011;6121;49.810;6.418;2023-07-22T02:41:12;7.55;;;4.60;;
12114;SDS011;6121;49.810;6.418;2023-07-22T02:43:38;12.43;;;7.72;;
12114;SDS011;6121;49.810;6.418;2023-07-22T02:46:06;7.20;;;4.30;;
12114;SDS011;6121;49.810;6.418;2023-07-22T02:48:33;7.82;;;4.65;;
12114;SDS011;6121;49.810;6.418;2023-07-22T02:51:09;7.30;;;4.40;;
12114;SDS011;6121;49.810;6.418;2023-07-22T02:53:36;13.75;;;8.02;;
12114;SDS011;6121;49.810;6.418;2023-07-22T02:56:02;6.03;;;3.70;;
12114;SDS011;6121;49.810;6.418;2023-07-22T02:58:29;8.20;;;4.85;;
12114;SDS011;6121;49.810;6.418;2023-07-22T03:00:55;9.88;;;5.88;;
12114;SDS011;6121;49.810;6.418;2023-07-22T03:03:23;10.85;;;6.57;;
12114;SDS011;6121;49.810;6.418;2023-07-22T03:05:48;8.23;;;5.00;;
12114;SDS011;6121;49.810;6.418;2023-07-22T03:08:14;7.43;;;4.27;;
12114;SDS011;6121;49.810;6.418;2023-07-22T03:10:40;9.30;;;5.60;;
12114;SDS011;6121;49.810;6.418;2023-07-22T03:13:06;10.25;;;6.32;;
12114;SDS011;6121;49.810;6.418;2023-07-22T03:15:32;8.70;;;5.07;;
12114;SDS011;6121;49.810;6.418;2023-07-22T03:17:58;8.20;;;4.88;;
12114;SDS011;6121;49.810;6.418;2023-07-22T03:20:27;7.13;;;4.15;;
12114;SDS011;6121;49.810;6.418;2023-07-22T03:22:53;12.68;;;7.55;;
12114;SDS011;6121;49.810;6.418;2023-07-22T03:25:19;7.15;;;4.28;;
12114;SDS011;6121;49.810;6.418;2023-07-22T03:27:45;8.82;;;5.22;;
12114;SDS011;6121;49.810;6.418;2023-07-22T03:30:13;7.23;;;4.30;;
12114;SDS011;6121;49.810;6.418;2023-07-22T03:32:40;9.00;;;5.45;;
12114;SDS011;6121;49.810;6.418;2023-07-22T03:35:10;7.20;;;4.23;;
12114;SDS011;6121;49.810;6.418;2023-07-22T03:37:37;7.13;;;4.37;;
12114;SDS011;6121;49.810;6.418;2023-07-22T03:40:03;8.18;;;4.82;;
12114;SDS011;6121;49.810;6.418;2023-07-22T03:42:46;10.10;;;6.00;;
12114;SDS011;6121;49.810;6.418;2023-07-22T03:45:12;5.95;;;3.67;;
12114;SDS011;6121;49.810;6.418;2023-07-22T03:47:39;8.77;;;5.15;;
12114;SDS011;6121;49.810;6.418;2023-07-22T03:50:06;8.10;;;5.00;;
12114;SDS011;6121;49.810;6.418;2023-07-22T03:52:32;8.80;;;5.15;;
12114;SDS011;6121;49.810;6.418;2023-07-22T03:54:58;7.30;;;4.47;;
12114;SDS011;6121;49.810;6.418;2023-07-22T03:57:27;6.57;;;4.13;;
12114;SDS011;6121;49.810;6.418;2023-07-22T03:59:53;9.57;;;5.60;;
12114;SDS011;6121;49.810;6.418;2023-07-22T04:02:20;6.80;;;3.90;;
12114;SDS011;6121;49.810;6.418;2023-07-22T04:04:45;8.77;;;5.20;;
12114;SDS011;6121;49.810;6.418;2023-07-22T04:07:11;8.57;;;4.83;;
12114;SDS011;6121;49.810;6.418;2023-07-22T04:09:37;9.00;;;5.10;;
12114;SDS011;6121;49.810;6.418;2023-07-22T04:12:04;7.32;;;4.47;;
12114;SDS011;6121;49.810;6.418;2023-07-22T04:14:30;8.00;;;4.88;;
12114;SDS011;6121;49.810;6.418;2023-07-22T04:16:58;8.48;;;5.00;;
12114;SDS011;6121;49.810;6.418;2023-07-22T04:19:24;7.23;;;4.23;;
12114;SDS011;6121;49.810;6.418;2023-07-22T04:21:49;9.17;;;5.40;;
12114;SDS011;6121;49.810;6.418;2023-07-22T04:24:15;8.52;;;5.07;;
12114;SDS011;6121;49.810;6.418;2023-07-22T04:26:42;6.63;;;3.97;;
12114;SDS011;6121;49.810;6.418;2023-07-22T04:29:08;8.07;;;4.90;;
12114;SDS011;6121;49.810;6.418;2023-07-22T04:31:37;8.13;;;5.00;;
12114;SDS011;6121;49.810;6.418;2023-07-22T04:34:03;12.17;;;7.00;;
12114;SDS011;6121;49.810;6.418;2023-07-22T04:36:30;7.65;;;4.57;;
12114;SDS011;6121;49.810;6.418;2023-07-22T04:38:56;8.20;;;5.07;;
12114;SDS011;6121;49.810;6.418;2023-07-22T04:41:22;7.03;;;4.30;;
12114;SDS011;6121;49.810;6.418;2023-07-22T04:43:49;11.35;;;7.00;;
12114;SDS011;6121;49.810;6.418;2023-07-22T04:46:16;7.22;;;4.72;;
12114;SDS011;6121;49.810;6.418;2023-07-22T04:48:42;6.93;;;4.30;;
12114;SDS011;6121;49.810;6.418;2023-07-22T04:51:08;8.57;;;5.00;;
12114;SDS011;6121;49.810;6.418;2023-07-22T04:53:34;11.55;;;6.93;;
12114;SDS011;6121;49.810;6.418;2023-07-22T04:56:00;8.00;;;4.75;;
12114;SDS011;6121;49.810;6.418;2023-07-22T04:58:27;7.60;;;4.53;;
12114;SDS011;6121;49.810;6.418;2023-07-22T05:00:53;14.30;;;8.10;;
12114;SDS011;6121;49.810;6.418;2023-07-22T05:03:19;13.10;;;8.02;;
12114;SDS011;6121;49.810;6.418;2023-07-22T05:05:44;9.35;;;5.65;;
12114;SDS011;6121;49.810;6.418;2023-07-22T05:08:10;8.52;;;5.15;;
12114;SDS011;6121;49.810;6.418;2023-07-22T05:10:36;9.00;;;5.47;;
12114;SDS011;6121;49.810;6.418;2023-07-22T05:13:03;11.88;;;7.53;;
12114;SDS011;6121;49.810;6.418;2023-07-22T05:15:29;8.70;;;5.30;;
12114;SDS011;6121;49.810;6.418;2023-07-22T05:17:54;7.93;;;5.03;;
12114;SDS011;6121;49.810;6.418;2023-07-22T05:20:20;8.87;;;5.60;;
12114;SDS011;6121;49.810;6.418;2023-07-22T05:22:46;9.77;;;6.07;;
12114;SDS011;6121;49.810;6.418;2023-07-22T05:25:12;7.93;;;4.93;;
12114;SDS011;6121;49.810;6.418;2023-07-22T05:27:39;8.20;;;5.20;;
12114;SDS011;6121;49.810;6.418;2023-07-22T05:30:06;9.23;;;5.78;;
12114;SDS011;6121;49.810;6.418;2023-07-22T05:32:32;8.07;;;5.03;;
12114;SDS011;6121;49.810;6.418;2023-07-22T05:34:58;9.47;;;6.07;;
12114;SDS011;6121;49.810;6.418;2023-07-22T05:37:24;7.90;;;5.10;;
12114;SDS011;6121;49.810;6.418;2023-07-22T05:39:50;9.27;;;5.93;;
12114;SDS011;6121;49.810;6.418;2023-07-22T05:42:19;7.30;;;4.57;;
12114;SDS011;6121;49.810;6.418;2023-07-22T05:44:46;9.20;;;5.90;;
12114;SDS011;6121;49.810;6.418;2023-07-22T05:47:12;7.60;;;4.93;;
12114;SDS011;6121;49.810;6.418;2023-07-22T05:49:38;8.13;;;5.32;;
12114;SDS011;6121;49.810;6.418;2023-07-22T05:52:05;7.40;;;4.80;;
12114;SDS011;6121;49.810;6.418;2023-07-22T05:54:31;5.93;;;4.10;;
12114;SDS011;6121;49.810;6.418;2023-07-22T05:56:57;7.40;;;4.75;;
12114;SDS011;6121;49.810;6.418;2023-07-22T05:59:23;10.63;;;6.75;;
12114;SDS011;6121;49.810;6.418;2023-07-22T06:01:49;7.03;;;4.55;;
12114;SDS011;6121;49.810;6.418;2023-07-22T06:04:15;9.63;;;6.13;;
12114;SDS011;6121;49.810;6.418;2023-07-22T06:06:41;7.57;;;4.97;;
12114;SDS011;6121;49.810;6.418;2023-07-22T06:09:07;8.67;;;5.83;;
12114;SDS011;6121;49.810;6.418;2023-07-22T06:11:32;7.28;;;4.53;;
12114;SDS011;6121;49.810;6.418;2023-07-22T06:13:58;10.32;;;6.75;;
12114;SDS011;6121;49.810;6.418;2023-07-22T06:16:24;8.43;;;5.23;;
12114;SDS011;6121;49.810;6.418;2023-07-22T06:18:50;6.97;;;4.67;;
12114;SDS011;6121;49.810;6.418;2023-07-22T06:21:16;9.37;;;5.90;;
12114;SDS011;6121;49.810;6.418;2023-07-22T06:23:41;11.87;;;7.57;;
12114;SDS011;6121;49.810;6.418;2023-07-22T06:26:07;8.43;;;5.30;;
12114;SDS011;6121;49.810;6.418;2023-07-22T06:28:33;9.35;;;6.03;;
12114;SDS011;6121;49.810;6.418;2023-07-22T06:30:59;9.00;;;6.05;;
12114;SDS011;6121;49.810;6.418;2023-07-22T06:33:25;11.60;;;7.43;;
12114;SDS011;6121;49.810;6.418;2023-07-22T06:35:52;6.38;;;4.25;;
12114;SDS011;6121;49.810;6.418;2023-07-22T06:38:17;8.18;;;5.20;;
12114;SDS011;6121;49.810;6.418;2023-07-22T06:40:43;7.88;;;5.28;;
12114;SDS011;6121;49.810;6.418;2023-07-22T06:43:10;9.60;;;6.13;;
12114;SDS011;6121;49.810;6.418;2023-07-22T06:45:36;6.90;;;4.70;;
12114;SDS011;6121;49.810;6.418;2023-07-22T06:48:02;7.47;;;4.80;;
12114;SDS011;6121;49.810;6.418;2023-07-22T06:50:28;7.05;;;4.57;;
12114;SDS011;6121;49.810;6.418;2023-07-22T06:52:54;7.50;;;4.85;;
12114;SDS011;6121;49.810;6.418;2023-07-22T06:55:20;7.25;;;4.78;;
12114;SDS011;6121;49.810;6.418;2023-07-22T06:57:47;7.03;;;4.78;;
12114;SDS011;6121;49.810;6.418;2023-07-22T07:00:14;7.57;;;5.10;;
12114;SDS011;6121;49.810;6.418;2023-07-22T07:02:40;8.35;;;5.40;;
12114;SDS011;6121;49.810;6.418;2023-07-22T07:05:06;8.10;;;5.20;;
12114;SDS011;6121;49.810;6.418;2023-07-22T07:07:33;6.53;;;4.53;;
12114;SDS011;6121;49.810;6.418;2023-07-22T07:09:59;7.53;;;4.87;;
12114;SDS011;6121;49.810;6.418;2023-07-22T07:12:25;8.10;;;5.27;;
12114;SDS011;6121;49.810;6.418;2023-07-22T07:14:50;7.33;;;4.87;;
12114;SDS011;6121;49.810;6.418;2023-07-22T07:17:17;7.47;;;4.78;;
12114;SDS011;6121;49.810;6.418;2023-07-22T07:19:43;9.40;;;6.10;;
12114;SDS011;6121;49.810;6.418;2023-07-22T07:22:09;6.82;;;4.45;;
12114;SDS011;6121;49.810;6.418;2023-07-22T07:24:35;9.40;;;6.05;;
12114;SDS011;6121;49.810;6.418;2023-07-22T07:27:00;6.85;;;4.55;;
12114;SDS011;6121;49.810;6.418;2023-07-22T07:29:26;8.63;;;5.70;;
12114;SDS011;6121;49.810;6.418;2023-07-22T07:31:52;5.80;;;3.83;;
12114;SDS011;6121;49.810;6.418;2023-07-22T07:34:18;7.60;;;4.93;;
12114;SDS011;6121;49.810;6.418;2023-07-22T07:36:44;7.78;;;4.95;;
12114;SDS011;6121;49.810;6.418;2023-07-22T07:39:09;8.15;;;5.45;;
12114;SDS011;6121;49.810;6.418;2023-07-22T07:41:35;6.20;;;4.22;;
12114;SDS011;6121;49.810;6.418;2023-07-22T07:44:22;8.60;;;5.78;;
12114;SDS011;6121;49.810;6.418;2023-07-22T07:46:48;7.53;;;5.00;;
12114;SDS011;6121;49.810;6.418;2023-07-22T07:49:13;8.80;;;5.85;;
12114;SDS011;6121;49.810;6.418;2023-07-22T07:51:40;6.78;;;4.70;;
12114;SDS011;6121;49.810;6.418;2023-07-22T07:54:07;7.45;;;5.03;;
12114;SDS011;6121;49.810;6.418;2023-07-22T07:56:33;6.20;;;4.30;;
12114;SDS011;6121;49.810;6.418;2023-07-22T07:58:59;7.17;;;4.90;;
12114;SDS011;6121;49.810;6.418;2023-07-22T08:01:25;7.63;;;5.20;;
12114;SDS011;6121;49.810;6.418;2023-07-22T08:03:50;11.77;;;6.85;;
12114;SDS011;6121;49.810;6.418;2023-07-22T08:06:16;7.13;;;4.20;;
12114;SDS011;6121;49.810;6.418;2023-07-22T08:08:42;8.82;;;5.03;;
12114;SDS011;6121;49.810;6.418;2023-07-22T08:11:09;9.90;;;5.65;;
12114;SDS011;6121;49.810;6.418;2023-07-22T08:13:38;12.55;;;7.40;;
12114;SDS011;6121;49.810;6.418;2023-07-22T08:16:05;9.27;;;5.30;;
12114;SDS011;6121;49.810;6.418;2023-07-22T08:18:32;9.55;;;5.57;;
12114;SDS011;6121;49.810;6.418;2023-07-22T08:21:00;8.55;;;4.90;;
12114;SDS011;6121;49.810;6.418;2023-07-22T08:23:28;9.98;;;6.22;;
12114;SDS011;6121;49.810;6.418;2023-07-22T08:25:55;7.88;;;4.80;;
12114;SDS011;6121;49.810;6.418;2023-07-22T08:28:21;8.57;;;5.10;;
12114;SDS011;6121;49.810;6.418;2023-07-22T08:30:48;11.85;;;6.80;;
12114;SDS011;6121;49.810;6.418;2023-07-22T08:33:14;11.82;;;7.30;;
12114;SDS011;6121;49.810;6.418;2023-07-22T08:35:42;8.93;;;5.40;;
12114;SDS011;6121;49.810;6.418;2023-07-22T08:38:08;8.20;;;4.85;;
12114;SDS011;6121;49.810;6.418;2023-07-22T08:40:38;8.70;;;5.32;;
12114;SDS011;6121;49.810;6.418;2023-07-22T08:43:06;12.02;;;7.32;;
12114;SDS011;6121;49.810;6.418;2023-07-22T08:45:36;7.35;;;4.68;;
12114;SDS011;6121;49.810;6.418;2023-07-22T08:48:05;8.55;;;5.28;;
12114;SDS011;6121;49.810;6.418;2023-07-22T08:50:52;8.45;;;5.28;;
12114;SDS011;6121;49.810;6.418;2023-07-22T08:53:30;11.13;;;7.03;;
12114;SDS011;6121;49.810;6.418;2023-07-22T08:55:58;7.53;;;4.75;;
12114;SDS011;6121;49.810;6.418;2023-07-22T08:58:24;8.05;;;5.20;;
12114;SDS011;6121;49.810;6.418;2023-07-22T09:00:51;10.03;;;6.23;;
12114;SDS011;6121;49.810;6.418;2023-07-22T09:03:18;10.52;;;6.93;;
12114;SDS011;6121;49.810;6.418;2023-07-22T09:05:45;7.47;;;4.93;;
12114;SDS011;6121;49.810;6.418;2023-07-22T09:08:12;8.10;;;5.47;;
12114;SDS011;6121;49.810;6.418;2023-07-22T09:10:38;52.50;;;11.52;;
12114;SDS011;6121;49.810;6.418;2023-07-22T09:13:04;54.33;;;13.43;;
12114;SDS011;6121;49.810;6.418;2023-07-22T09:15:31;30.63;;;8.00;;
12114;SDS011;6121;49.810;6.418;2023-07-22T09:18:01;36.13;;;9.55;;
12114;SDS011;6121;49.810;6.418;2023-07-22T09:20:27;38.85;;;10.70;;
12114;SDS011;6121;49.810;6.418;2023-07-22T09:22:54;28.73;;;8.52;;
12114;SDS011;6121;49.810;6.418;2023-07-22T09:25:24;30.07;;;8.70;;
12114;SDS011;6121;49.810;6.418;2023-07-22T09:27:52;44.17;;;12.50;;
12114;SDS011;6121;49.810;6.418;2023-07-22T09:30:20;29.33;;;8.73;;
12114;SDS011;6121;49.810;6.418;2023-07-22T09:32:47;34.93;;;10.27;;
12114;SDS011;6121;49.810;6.418;2023-07-22T09:35:13;31.13;;;9.13;;
12114;SDS011;6121;49.810;6.418;2023-07-22T09:37:39;31.98;;;9.07;;
12114;SDS011;6121;49.810;6.418;2023-07-22T09:40:13;68.35;;;14.13;;
12114;SDS011;6121;49.810;6.418;2023-07-22T09:42:43;43.83;;;11.15;;
12114;SDS011;6121;49.810;6.418;2023-07-22T09:45:10;36.75;;;10.18;;
12114;SDS011;6121;49.810;6.418;2023-07-22T09:47:40;37.47;;;10.23;;
12114;SDS011;6121;49.810;6.418;2023-07-22T09:50:11;42.37;;;12.03;;
12114;SDS011;6121;49.810;6.418;2023-07-22T09:52:45;30.55;;;8.80;;
12114;SDS011;6121;49.810;6.418;2023-07-22T09:55:17;29.85;;;8.52;;
12114;SDS011;6121;49.810;6.418;2023-07-22T09:57:46;33.30;;;9.35;;
12114;SDS011;6121;49.810;6.418;2023-07-22T10:00:15;37.97;;;10.75;;
12114;SDS011;6121;49.810;6.418;2023-07-22T10:02:45;38.70;;;11.00;;
12114;SDS011;6121;49.810;6.418;2023-07-22T10:05:18;41.42;;;11.07;;
12114;SDS011;6121;49.810;6.418;2023-07-22T10:07:46;35.50;;;9.77;;
12114;SDS011;6121;49.810;6.418;2023-07-22T10:10:33;46.10;;;12.23;;
12114;SDS011;6121;49.810;6.418;2023-07-22T10:13:08;38.00;;;10.18;;
12114;SDS011;6121;49.810;6.418;2023-07-22T10:15:36;31.13;;;8.70;;
12114;SDS011;6121;49.810;6.418;2023-07-22T10:18:02;29.90;;;8.23;;
12114;SDS011;6121;49.810;6.418;2023-07-22T10:20:30;39.90;;;10.60;;
12114;SDS011;6121;49.810;6.418;2023-07-22T10:22:59;44.30;;;11.77;;
12114;SDS011;6121;49.810;6.418;2023-07-22T10:25:26;35.25;;;8.38;;
12114;SDS011;6121;49.810;6.418;2023-07-22T10:27:52;41.10;;;10.23;;
12114;SDS011;6121;49.810;6.418;2023-07-22T10:30:19;30.27;;;8.35;;
12114;SDS011;6121;49.810;6.418;2023-07-22T10:32:47;31.10;;;9.38;;
12114;SDS011;6121;49.810;6.418;2023-07-22T10:35:21;26.95;;;9.38;;
12114;SDS011;6121;49.810;6.418;2023-07-22T10:40:53;22.83;;;8.75;;
12114;SDS011;6121;49.810;6.418;2023-07-22T10:43:35;63.22;;;13.27;;
12114;SDS011;6121;49.810;6.418;2023-07-22T10:46:09;27.63;;;8.55;;
12114;SDS011;6121;49.810;6.418;2023-07-22T10:48:37;24.77;;;8.32;;
12114;SDS011;6121;49.810;6.418;2023-07-22T10:51:09;25.52;;;9.13;;
12114;SDS011;6121;49.810;6.418;2023-07-22T10:53:41;31.95;;;10.90;;
12114;SDS011;6121;49.810;6.418;2023-07-22T10:56:21;21.23;;;7.25;;
12114;SDS011;6121;49.810;6.418;2023-07-22T11:06:39;22.48;;;7.38;;
12114;SDS011;6121;49.810;6.418;2023-07-22T11:14:46;30.73;;;10.70;;
12114;SDS011;6121;49.810;6.418;2023-07-22T11:17:14;24.50;;;8.68;;
12114;SDS011;6121;49.810;6.418;2023-07-22T11:19:40;28.23;;;10.03;;
12114;SDS011;6121;49.810;6.418;2023-07-22T11:22:07;19.85;;;7.07;;
12114;SDS011;6121;49.810;6.418;2023-07-22T11:24:33;33.13;;;11.43;;
12114;SDS011;6121;49.810;6.418;2023-07-22T11:27:04;22.20;;;7.65;;
12114;SDS011;6121;49.810;6.418;2023-07-22T11:29:31;32.83;;;10.48;;
12114;SDS011;6121;49.810;6.418;2023-07-22T11:31:57;33.92;;;9.65;;
12114;SDS011;6121;49.810;6.418;2023-07-22T11:34:24;45.47;;;12.25;;
12114;SDS011;6121;49.810;6.418;2023-07-22T11:36:51;31.05;;;8.65;;
12114;SDS011;6121;49.810;6.418;2023-07-22T11:39:19;40.25;;;11.15;;
12114;SDS011;6121;49.810;6.418;2023-07-22T11:41:46;32.45;;;9.15;;
12114;SDS011;6121;49.810;6.418;2023-07-22T11:44:14;45.70;;;13.05;;
12114;SDS011;6121;49.810;6.418;2023-07-22T11:49:29;58.47;;;12.82;;
12114;SDS011;6121;49.810;6.418;2023-07-22T11:52:01;37.95;;;9.13;;
12114;SDS011;6121;49.810;6.418;2023-07-22T11:54:33;56.80;;;13.13;;
12114;SDS011;6121;49.810;6.418;2023-07-22T11:57:10;34.70;;;8.85;;
12114;SDS011;6121;49.810;6.418;2023-07-22T11:59:43;42.72;;;10.73;;
12114;SDS011;6121;49.810;6.418;2023-07-22T12:02:16;42.22;;;10.60;;
12114;SDS011;6121;49.810;6.418;2023-07-22T12:04:53;48.92;;;12.20;;
12114;SDS011;6121;49.810;6.418;2023-07-22T12:07:32;40.03;;;10.25;;
12114;SDS011;6121;49.810;6.418;2023-07-22T12:10:03;39.25;;;10.32;;
12114;SDS011;6121;49.810;6.418;2023-07-22T12:12:31;33.72;;;9.48;;
12114;SDS011;6121;49.810;6.418;2023-07-22T12:15:08;34.60;;;9.87;;
12114;SDS011;6121;49.810;6.418;2023-07-22T12:17:48;35.22;;;9.73;;
12114;SDS011;6121;49.810;6.418;2023-07-22T12:20:18;34.03;;;9.82;;
12114;SDS011;6121;49.810;6.418;2023-07-22T12:22:44;37.20;;;10.63;;
12114;SDS011;6121;49.810;6.418;2023-07-22T12:25:10;35.80;;;10.18;;
12114;SDS011;6121;49.810;6.418;2023-07-22T12:27:36;31.98;;;9.20;;
12114;SDS011;6121;49.810;6.418;2023-07-22T12:30:03;36.65;;;10.07;;
12114;SDS011;6121;49.810;6.418;2023-07-22T12:32:30;30.48;;;8.57;;
12114;SDS011;6121;49.810;6.418;2023-07-22T12:34:56;35.35;;;9.82;;
12114;SDS011;6121;49.810;6.418;2023-07-22T12:37:22;32.17;;;8.90;;
12114;SDS011;6121;49.810;6.418;2023-07-22T12:39:48;37.00;;;10.00;;
12114;SDS011;6121;49.810;6.418;2023-07-22T12:42:13;34.65;;;9.52;;
12114;SDS011;6121;49.810;6.418;2023-07-22T12:44:39;41.70;;;11.37;;
12114;SDS011;6121;49.810;6.418;2023-07-22T12:47:07;28.98;;;8.02;;
12114;SDS011;6121;49.810;6.418;2023-07-22T12:49:33;40.88;;;11.30;;
12114;SDS011;6121;49.810;6.418;2023-07-22T12:51:59;30.33;;;8.40;;
12114;SDS011;6121;49.810;6.418;2023-07-22T12:54:29;43.83;;;12.18;;
12114;SDS011;6121;49.810;6.418;2023-07-22T12:56:56;32.72;;;9.15;;
12114;SDS011;6121;49.810;6.418;2023-07-22T12:59:22;31.40;;;9.30;;
12114;SDS011;6121;49.810;6.418;2023-07-22T13:01:48;35.03;;;10.18;;
12114;SDS011;6121;49.810;6.418;2023-07-22T13:04:14;42.03;;;11.90;;
12114;SDS011;6121;49.810;6.418;2023-07-22T13:06:39;35.13;;;9.50;;
12114;SDS011;6121;49.810;6.418;2023-07-22T13:09:05;32.37;;;8.80;;
12114;SDS011;6121;49.810;6.418;2023-07-22T13:11:31;39.25;;;10.88;;
12114;SDS011;6121;49.810;6.418;2023-07-22T13:13:57;41.97;;;11.80;;
12114;SDS011;6121;49.810;6.418;2023-07-22T13:16:23;31.55;;;9.13;;
12114;SDS011;6121;49.810;6.418;2023-07-22T13:18:48;36.03;;;10.27;;
12114;SDS011;6121;49.810;6.418;2023-07-22T13:21:14;38.38;;;10.68;;
12114;SDS011;6121;49.810;6.418;2023-07-22T13:23:40;53.87;;;15.23;;
12114;SDS011;6121;49.810;6.418;2023-07-22T13:26:06;31.27;;;9.20;;
12114;SDS011;6121;49.810;6.418;2023-07-22T13:28:31;39.67;;;11.50;;
12114;SDS011;6121;49.810;6.418;2023-07-22T13:30:57;33.37;;;9.50;;
12114;SDS011;6121;49.810;6.418;2023-07-22T13:33:23;45.65;;;13.27;;
12114;SDS011;6121;49.810;6.418;2023-07-22T13:35:49;34.73;;;10.00;;
12114;SDS011;6121;49.810;6.418;2023-07-22T13:38:15;31.00;;;8.90;;
12114;SDS011;6121;49.810;6.418;2023-07-22T13:40:41;35.70;;;10.23;;
12114;SDS011;6121;49.810;6.418;2023-07-22T13:43:07;41.57;;;12.03;;
12114;SDS011;6121;49.810;6.418;2023-07-22T13:45:34;37.93;;;10.97;;
12114;SDS011;6121;49.810;6.418;2023-07-22T13:48:00;30.90;;;9.10;;
12114;SDS011;6121;49.810;6.418;2023-07-22T13:50:26;34.43;;;10.13;;
12114;SDS011;6121;49.810;6.418;2023-07-22T13:52:52;32.85;;;10.18;;
12114;SDS011;6121;49.810;6.418;2023-07-22T13:55:18;23.77;;;7.22;;
12114;SDS011;6121;49.810;6.418;2023-07-22T13:57:44;35.13;;;10.63;;
12114;SDS011;6121;49.810;6.418;2023-07-22T14:00:09;31.17;;;9.53;;
12114;SDS011;6121;49.810;6.418;2023-07-22T14:02:38;32.85;;;10.30;;
12114;SDS011;6121;49.810;6.418;2023-07-22T14:05:04;28.55;;;9.07;;
12114;SDS011;6121;49.810;6.418;2023-07-22T14:07:31;32.40;;;10.23;;
12114;SDS011;6121;49.810;6.418;2023-07-22T14:09:56;31.30;;;9.57;;
12114;SDS011;6121;49.810;6.418;2023-07-22T14:12:22;22.77;;;7.17;;
12114;SDS011;6121;49.810;6.418;2023-07-22T14:14:48;35.67;;;11.10;;
12114;SDS011;6121;49.810;6.418;2023-07-22T14:17:14;26.10;;;8.37;;
12114;SDS011;6121;49.810;6.418;2023-07-22T14:19:39;35.88;;;11.02;;
12114;SDS011;6121;49.810;6.418;2023-07-22T14:22:05;25.13;;;8.10;;
12114;SDS011;6121;49.810;6.418;2023-07-22T14:24:31;37.55;;;11.80;;
12114;SDS011;6121;49.810;6.418;2023-07-22T14:26:57;33.42;;;10.60;;
12114;SDS011;6121;49.810;6.418;2023-07-22T14:29:22;33.40;;;10.43;;
12114;SDS011;6121;49.810;6.418;2023-07-22T14:31:50;31.20;;;10.00;;
12114;SDS011;6121;49.810;6.418;2023-07-22T14:34:16;34.92;;;11.48;;
12114;SDS011;6121;49.810;6.418;2023-07-22T14:36:42;39.87;;;12.83;;
12114;SDS011;6121;49.810;6.418;2023-07-22T14:39:09;33.42;;;10.88;;
12114;SDS011;6121;49.810;6.418;2023-07-22T14:41:35;39.33;;;12.82;;
12114;SDS011;6121;49.810;6.418;2023-07-22T14:44:01;43.22;;;14.45;;
12114;SDS011;6121;49.810;6.418;2023-07-22T14:46:26;26.23;;;8.98;;
12114;SDS011;6121;49.810;6.418;2023-07-22T14:48:52;27.40;;;9.02;;
12114;SDS011;6121;49.810;6.418;2023-07-22T14:51:18;27.20;;;8.63;;
12114;SDS011;6121;49.810;6.418;2023-07-22T14:53:44;39.28;;;12.98;;
12114;SDS011;6121;49.810;6.418;2023-07-22T14:56:11;37.97;;;11.60;;
12114;SDS011;6121;49.810;6.418;2023-07-22T14:58:36;35.75;;;10.05;;
12114;SDS011;6121;49.810;6.418;2023-07-22T15:01:02;35.00;;;9.82;;
12114;SDS011;6121;49.810;6.418;2023-07-22T15:03:29;42.85;;;11.48;;
12114;SDS011;6121;49.810;6.418;2023-07-22T15:05:55;46.33;;;11.70;;
12114;SDS011;6121;49.810;6.418;2023-07-22T15:08:20;34.57;;;8.77;;
12114;SDS011;6121;49.810;6.418;2023-07-22T15:10:46;28.48;;;7.78;;